Time;durP1;ratioP1;P1;durP2;ratioP2;P2;SDS_P1;SDS_P2;PMS_P1;PMS_P2;Temp;Humidity;BMP_temperature;BMP_pressure;BME280_temperature;BME280_humidity;BME280_pressure;Samples;Min_cycle;Max_cycle;Signal;HPM_P1;HPM_P2
2024/01/04 00:01:54;;;;;;;;;;;;;;;;;;5026656;27;89478;-66
2024/01/04 00:04:19;;;;;;;;;;;;;;;;;;5023634;27;89223;-67
2024/01/04 00:06:45;;;;;;;;;;;;;;;;;;5013488;27;89444;-66
2024/01/04 00:09:11;;;;;;;;;;;;;;;;;;5020409;27;91514;-67
2024/01/04 00:11:36;;;;;;;;;;;;;;;;;;5014682;27;89270;-66
2024/01/04 00:14:02;;;;;;;;;;;;;;;;;;5017417;27;89672;-67
2024/01/04 00:16:27;;;;;;;;;;;;;;;;;;5011375;27;89570;-67
2024/01/04 00:18:53;;;;;;;;;;;;;;;;;;5015533;27;89618;-64
2024/01/04 00:21:18;;;;;;;;;;;;;;;;;;5020466;27;90055;-64
2024/01/04 00:23:43;;;;;;;;;;;;;;;;;;5021540;27;91026;-64
2024/01/04 00:26:08;;;;;;;;;;;;;;;;;;5012730;27;89818;-63
2024/01/04 00:28:33;;;;;;;;;;;;;;;;;;5012872;27;90344;-64
2024/01/04 00:30:59;;;;;;;;;;;;;;;;;;5025031;27;89052;-64
2024/01/04 00:33:24;;;;;;;;;;;;;;;;;;5022727;27;90047;-64
2024/01/04 00:35:49;;;;;;;;;;;;;;;;;;5034454;27;89378;-64
2024/01/04 00:38:15;;;;;;;;;;;;;;;;;;5023925;27;89599;-67
2024/01/04 00:40:40;;;;;;;;;;;;;;;;;;5025627;27;89513;-63
2024/01/04 00:43:05;;;;;;;;;;;;;;;;;;5020168;27;89762;-65
2024/01/04 00:45:30;;;;;;;;;;;;;;;;;;5023477;27;89651;-64
2024/01/04 00:47:56;;;;;;;;;;;;;;;;;;5020625;27;89796;-63
2024/01/04 00:50:21;;;;;;;;;;;;;;;;;;5025134;27;89601;-63
2024/01/04 00:52:46;;;;;;;;;;;;;;;;;;5050099;27;90297;-63
2024/01/04 00:55:11;;;;;;;;;;;;;;;;;;5028746;27;89494;-63
2024/01/04 00:57:36;;;;;;;;;;;;;;;;;;5019733;27;89752;-63
2024/01/04 01:00:03;;;;;;;;;;;;;;;;;;5019422;27;90705;-64
2024/01/04 01:02:28;;;;;;;;;;;;;;;;;;5016469;27;90609;-63
2024/01/04 01:04:53;;;;;;;;;;;;;;;;;;5028539;27;89527;-63
2024/01/04 01:07:18;;;;;;;;;;;;;;;;;;5025276;27;89736;-63
2024/01/04 01:09:44;;;;;;;;;;;;;;;;;;5015747;27;89083;-66
2024/01/04 01:12:09;;;;;;;;;;;;;;;;;;5019426;27;90903;-63
2024/01/04 01:14:34;;;;;;;;;;;;;;;;;;5022392;27;90350;-62
2024/01/04 01:16:59;;;;;;;;;;;;;;;;;;5021277;27;88989;-65
2024/01/04 01:19:25;;;;;;;;;;;;;;;;;;5026245;27;90594;-64
2024/01/04 01:21:50;;;;;;;;;;;;;;;;;;5019352;27;89754;-63
2024/01/04 01:24:15;;;;;;;;;;;;;;;;;;5025287;27;89381;-63
2024/01/04 01:26:42;;;;;;;;;;;;;;;;;;5023345;27;89052;-63
2024/01/04 01:29:08;;;;;;;;;;;;;;;;;;5026140;27;89504;-63
2024/01/04 01:31:38;;;;;;;;;;;;;;;;;;5023852;27;89543;-63
2024/01/04 01:34:04;;;;;;;;;;;;;;;;;;5022438;27;89763;-63
2024/01/04 01:36:29;;;;;;;;;;;;;;;;;;5028252;27;89351;-63
2024/01/04 01:38:55;;;;;;;;;;;;;;;;;;5020757;27;90682;-63
2024/01/04 01:41:20;;;;;;;;;;;;;;;;;;5019164;27;89396;-66
2024/01/04 01:43:45;;;;;;;;;;;;;;;;;;5028536;27;89252;-63
2024/01/04 01:46:10;;;;;;;;;;;;;;;;;;5016425;27;89688;-64
2024/01/04 01:48:35;;;;;;;;;;;;;;;;;;5020909;27;89916;-63
2024/01/04 01:51:01;;;;;;;;;;;;;;;;;;5022202;27;89492;-67
2024/01/04 01:53:27;;;;;;;;;;;;;;;;;;5022896;27;89501;-66
2024/01/04 01:55:52;;;;;;;;;;;;;;;;;;5020861;27;89185;-63
2024/01/04 01:58:17;;;;;;;;;;;;;;;;;;5046832;27;92534;-63
2024/01/04 02:00:43;;;;;;;;;;;;;;;;;;5023070;27;89166;-63
2024/01/04 02:03:08;;;;;;;;;;;;;;;;;;5024390;27;89201;-63
2024/01/04 02:05:33;;;;;;;;;;;;;;;;;;5024557;27;89619;-63
2024/01/04 02:07:58;;;;;;;;;;;;;;;;;;5017682;27;89166;-63
2024/01/04 02:10:24;;;;;;;;;;;;;;;;;;5027686;27;89561;-66
2024/01/04 02:12:49;;;;;;;;;;;;;;;;;;5019964;27;89483;-67
2024/01/04 02:15:14;;;;;;;;;;;;;;;;;;5020931;27;89695;-65
2024/01/04 02:17:40;;;;;;;;;;;;;;;;;;5018952;27;89728;-66
2024/01/04 02:20:05;;;;;;;;;;;;;;;;;;5020286;27;89887;-65
2024/01/04 02:22:30;;;;;;;;;;;;;;;;;;5030355;27;90108;-63
2024/01/04 02:24:56;;;;;;;;;;;;;;;;;;5029671;28;89611;-63
2024/01/04 02:27:21;;;;;;;;;;;;;;;;;;5029403;28;89693;-63
2024/01/04 02:29:46;;;;;;;;;;;;;;;;;;5028572;27;89558;-63
2024/01/04 02:32:11;;;;;;;;;;;;;;;;;;5031530;28;89573;-63
2024/01/04 02:34:37;;;;;;;;;;;;;;;;;;5039722;27;89810;-62
2024/01/04 02:37:02;;;;;;;;;;;;;;;;;;5035202;27;89470;-62
2024/01/04 02:39:30;;;;;;;;;;;;;;;;;;5028589;28;89405;-63
2024/01/04 02:41:55;;;;;;;;;;;;;;;;;;5028879;28;89056;-64
2024/01/04 02:44:20;;;;;;;;;;;;;;;;;;5044398;27;89550;-65
2024/01/04 02:46:47;;;;;;;;;;;;;;;;;;5048594;27;89029;-67
2024/01/04 02:49:13;;;;;;;;;;;;;;;;;;5048233;27;89348;-65
2024/01/04 02:51:38;;;;;;;;;;;;;;;;;;5044592;27;89534;-66
2024/01/04 02:54:03;;;;;;;;;;;;;;;;;;5011536;28;90114;-66
2024/01/04 02:56:28;;;;;;;;;;;;;;;;;;5019031;28;90477;-64
2024/01/04 02:58:54;;;;;;;;;;;;;;;;;;5028414;28;89554;-65
2024/01/04 03:01:23;;;;;;;;;;;;;;;;;;5018812;28;89522;-64
2024/01/04 03:03:51;;;;;;;;;;;;;;;;;;5008243;28;90585;-67
2024/01/04 03:06:20;;;;;;;;;;;;;;;;;;5007753;28;90483;-64
2024/01/04 03:08:45;;;;;;;;;;;;;;;;;;5008313;28;89576;-62
2024/01/04 03:11:10;;;;;;;;;;;;;;;;;;5008531;28;90158;-66
2024/01/04 03:13:36;;;;;;;;;;;;;;;;;;5008283;28;89211;-67
2024/01/04 03:16:01;;;;;;;;;;;;;;;;;;5011470;28;89041;-66
2024/01/04 03:18:26;;;;;;;;;;;;;;;;;;5008174;28;89500;-68
2024/01/04 03:20:51;;;;;;;;;;;;;;;;;;5007293;28;89455;-67
2024/01/04 03:23:17;;;;;;;;;;;;;;;;;;5007522;28;90053;-67
2024/01/04 03:25:42;;;;;;;;;;;;;;;;;;5015034;28;90312;-68
2024/01/04 03:28:08;;;;;;;;;;;;;;;;;;5027671;28;89392;-67
2024/01/04 03:30:33;;;;;;;;;;;;;;;;;;5028085;28;90765;-67
2024/01/04 03:32:58;;;;;;;;;;;;;;;;;;5028087;28;90640;-74
2024/01/04 03:35:24;;;;;;;;;;;;;;;;;;5016423;27;91356;-66
2024/01/04 03:37:49;;;;;;;;;;;;;;;;;;5023142;27;90040;-65
2024/01/04 03:40:14;;;;;;;;;;;;;;;;;;5016219;28;89577;-62
2024/01/04 03:42:39;;;;;;;;;;;;;;;;;;5017492;28;89653;-63
2024/01/04 03:45:06;;;;;;;;;;;;;;;;;;5017507;28;89428;-66
2024/01/04 03:47:32;;;;;;;;;;;;;;;;;;5015897;28;89661;-66
2024/01/04 03:49:59;;;;;;;;;;;;;;;;;;5017416;28;90017;-66
2024/01/04 03:52:24;;;;;;;;;;;;;;;;;;5017647;28;89453;-66
2024/01/04 03:54:49;;;;;;;;;;;;;;;;;;5015330;28;91282;-66
2024/01/04 03:57:15;;;;;;;;;;;;;;;;;;5012847;28;89576;-67
2024/01/04 03:59:40;;;;;;;;;;;;;;;;;;5016729;28;89710;-64
2024/01/04 04:02:06;;;;;;;;;;;;;;;;;;5016353;28;89883;-63
2024/01/04 04:04:31;;;;;;;;;;;;;;;;;;5025972;28;89039;-64
2024/01/04 04:06:56;;;;;;;;;;;;;;;;;;5021669;28;89858;-63
2024/01/04 04:09:21;;;;;;;;;;;;;;;;;;5022026;28;89865;-63
2024/01/04 04:11:48;;;;;;;;;;;;;;;;;;5017050;28;89460;-63
2024/01/04 04:14:14;;;;;;;;;;;;;;;;;;5014623;28;89783;-62
2024/01/04 04:16:40;;;;;;;;;;;;;;;;;;5021710;28;89563;-64
2024/01/04 04:19:05;;;;;;;;;;;;;;;;;;5021615;28;90532;-63
2024/01/04 04:21:31;;;;;;;;;;;;;;;;;;5019051;28;89491;-64
2024/01/04 04:23:56;;;;;;;;;;;;;;;;;;5019636;28;89635;-64
2024/01/04 04:26:22;;;;;;;;;;;;;;;;;;5015885;27;89502;-65
2024/01/04 04:28:50;;;;;;;;;;;;;;;;;;5017855;27;90159;-64
2024/01/04 04:31:16;;;;;;;;;;;;;;;;;;5021357;27;89822;-65
2024/01/04 04:33:45;;;;;;;;;;;;;;;;;;5019542;27;91441;-63
2024/01/04 04:36:11;;;;;;;;;;;;;;;;;;5019136;27;89455;-63
2024/01/04 04:38:36;;;;;;;;;;;;;;;;;;5018470;27;89722;-63
2024/01/04 04:41:03;;;;;;;;;;;;;;;;;;5024540;27;89458;-62
2024/01/04 04:43:28;;;;;;;;;;;;;;;;;;5021753;27;90761;-64
2024/01/04 04:45:55;;;;;;;;;;;;;;;;;;5019487;27;89389;-62
2024/01/04 04:48:20;;;;;;;;;;;;;;;;;;5022327;27;89454;-63
2024/01/04 04:50:45;;;;;;;;;;;;;;;;;;5020892;27;89752;-63
2024/01/04 04:53:11;;;;;;;;;;;;;;;;;;5020587;27;89942;-65
2024/01/04 04:55:36;;;;;;;;;;;;;;;;;;5019899;27;89517;-64
2024/01/04 04:58:01;;;;;;;;;;;;;;;;;;5018685;27;90236;-63
2024/01/04 05:00:27;;;;;;;;;;;;;;;;;;5024141;27;89170;-62
2024/01/04 05:02:52;;;;;;;;;;;;;;;;;;5028540;27;89960;-66
2024/01/04 05:05:17;;;;;;;;;;;;;;;;;;5017108;27;89085;-64
2024/01/04 05:07:42;;;;;;;;;;;;;;;;;;5016230;27;89519;-63
2024/01/04 05:10:08;;;;;;;;;;;;;;;;;;5017701;27;89785;-65
2024/01/04 05:12:33;;;;;;;;;;;;;;;;;;5017184;27;90392;-65
2024/01/04 05:14:59;;;;;;;;;;;;;;;;;;5018483;27;89735;-63
2024/01/04 05:17:24;;;;;;;;;;;;;;;;;;5015896;27;89275;-64
2024/01/04 05:19:49;;;;;;;;;;;;;;;;;;5020525;27;89608;-64
2024/01/04 05:22:15;;;;;;;;;;;;;;;;;;5018310;27;89456;-65
2024/01/04 05:24:40;;;;;;;;;;;;;;;;;;5027058;27;89615;-65
2024/01/04 05:27:06;;;;;;;;;;;;;;;;;;5022235;27;90497;-65
2024/01/04 05:29:31;;;;;;;;;;;;;;;;;;5023186;27;90081;-62
2024/01/04 05:31:56;;;;;;;;;;;;;;;;;;5018214;27;89637;-65
2024/01/04 05:34:21;;;;;;;;;;;;;;;;;;5019111;27;89807;-66
2024/01/04 05:36:46;;;;;;;;;;;;;;;;;;5017540;27;90034;-65
2024/01/04 05:39:12;;;;;;;;;;;;;;;;;;5018606;27;89627;-64
2024/01/04 05:41:37;;;;;;;;;;;;;;;;;;5017150;27;89781;-66
2024/01/04 05:44:03;;;;;;;;;;;;;;;;;;5019076;27;91666;-63
2024/01/04 05:46:28;;;;;;;;;;;;;;;;;;5019483;27;89853;-63
2024/01/04 05:48:54;;;;;;;;;;;;;;;;;;5016189;27;90234;-63
2024/01/04 05:51:19;;;;;;;;;;;;;;;;;;5018056;27;89927;-63
2024/01/04 05:53:44;;;;;;;;;;;;;;;;;;5018021;27;91065;-62
2024/01/04 05:56:10;;;;;;;;;;;;;;;;;;5018825;27;89522;-63
2024/01/04 05:58:35;;;;;;;;;;;;;;;;;;5017072;27;89408;-64
2024/01/04 06:01:00;;;;;;;;;;;;;;;;;;5017208;27;90599;-66
2024/01/04 06:03:25;;;;;;;;;;;;;;;;;;5018334;27;91885;-64
2024/01/04 06:05:51;;;;;;;;;;;;;;;;;;5021522;27;90572;-63
2024/01/04 06:08:16;;;;;;;;;;;;;;;;;;5017822;27;89554;-64
2024/01/04 06:10:42;;;;;;;;;;;;;;;;;;5023398;27;89489;-65
2024/01/04 06:13:07;;;;;;;;;;;;;;;;;;5022564;27;90632;-64
2024/01/04 06:15:32;;;;;;;;;;;;;;;;;;5021037;27;89389;-62
2024/01/04 06:17:58;;;;;;;;;;;;;;;;;;5020907;27;89780;-62
2024/01/04 06:20:23;;;;;;;;;;;;;;;;;;5015429;27;90610;-66
2024/01/04 06:22:50;;;;;;;;;;;;;;;;;;5016327;27;90498;-63
2024/01/04 06:25:15;;;;;;;;;;;;;;;;;;5019972;27;89549;-63
2024/01/04 06:27:41;;;;;;;;;;;;;;;;;;5023122;27;91657;-63
2024/01/04 06:30:06;;;;;;;;;;;;;;;;;;5016590;27;89598;-63
2024/01/04 06:32:32;;;;;;;;;;;;;;;;;;5022720;27;90441;-65
2024/01/04 06:34:57;;;;;;;;;;;;;;;;;;5016802;27;90115;-63
2024/01/04 06:37:22;;;;;;;;;;;;;;;;;;5015403;27;89474;-63
2024/01/04 06:39:49;;;;;;;;;;;;;;;;;;5019704;27;90104;-63
2024/01/04 06:42:14;;;;;;;;;;;;;;;;;;5013107;27;89648;-64
2024/01/04 06:44:40;;;;;;;;;;;;;;;;;;5022322;27;89701;-63
2024/01/04 06:47:05;;;;;;;;;;;;;;;;;;5018926;27;93254;-63
2024/01/04 06:49:30;;;;;;;;;;;;;;;;;;5020748;27;90027;-64
2024/01/04 06:51:56;;;;;;;;;;;;;;;;;;5017875;27;90561;-63
2024/01/04 06:54:21;;;;;;;;;;;;;;;;;;5014314;27;90223;-63
2024/01/04 06:56:46;;;;;;;;;;;;;;;;;;5012123;27;89996;-63
2024/01/04 06:59:12;;;;;;;;;;;;;;;;;;5023456;27;90805;-65
2024/01/04 07:01:37;;;;;;;;;;;;;;;;;;5020588;28;89395;-70
2024/01/04 07:04:02;;;;;;;;;;;;;;;;;;5021441;28;89175;-68
2024/01/04 07:06:27;;;;;;;;;;;;;;;;;;5008747;28;89849;-67
2024/01/04 07:08:52;;;;;;;;;;;;;;;;;;5017994;27;90617;-68
2024/01/04 07:11:18;;;;;;;;;;;;;;;;;;5023438;28;89673;-66
2024/01/04 07:13:43;;;;;;;;;;;;;;;;;;5028131;27;89313;-68
2024/01/04 07:16:09;;;;;;;;;;;;;;;;;;5017113;28;89467;-69
2024/01/04 07:18:34;;;;;;;;;;;;;;;;;;5021942;28;90674;-71
2024/01/04 07:20:59;;;;;;;;;;;;;;;;;;5011341;28;90229;-68
2024/01/04 07:23:25;;;;;;;;;;;;;;;;;;5011534;28;89622;-71
2024/01/04 07:25:51;;;;;;;;;;;;;;;;;;5016906;28;90664;-70
2024/01/04 07:28:16;;;;;;;;;;;;;;;;;;5019286;27;91409;-66
2024/01/04 07:30:41;;;;;;;;;;;;;;;;;;5019223;28;89312;-65
2024/01/04 07:33:06;;;;;;;;;;;;;;;;;;5027051;28;89098;-65
2024/01/04 07:35:32;;;;;;;;;;;;;;;;;;5025687;27;89423;-65
2024/01/04 07:37:58;;;;;;;;;;;;;;;;;;5019603;27;89739;-64
2024/01/04 07:40:24;;;;;;;;;;;;;;;;;;5008812;28;89933;-65
2024/01/04 07:42:49;;;;;;;;;;;;;;;;;;5016166;28;89599;-67
2024/01/04 07:45:14;;;;;;;;;;;;;;;;;;5014349;28;90607;-66
2024/01/04 07:47:39;;;;;;;;;;;;;;;;;;5015180;28;90632;-66
2024/01/04 07:50:05;;;;;;;;;;;;;;;;;;5014161;28;89713;-64
2024/01/04 07:52:30;;;;;;;;;;;;;;;;;;5020849;28;89753;-66
2024/01/04 07:54:56;;;;;;;;;;;;;;;;;;5019536;28;89699;-64
2024/01/04 07:57:21;;;;;;;;;;;;;;;;;;5025386;28;89630;-63
2024/01/04 07:59:46;;;;;;;;;;;;;;;;;;5018806;28;90090;-64
2024/01/04 08:02:11;;;;;;;;;;;;;;;;;;5022148;28;89318;-64
2024/01/04 08:04:37;;;;;;;;;;;;;;;;;;5019282;28;89715;-62
2024/01/04 08:07:02;;;;;;;;;;;;;;;;;;5016822;28;89673;-63
2024/01/04 08:09:27;;;;;;;;;;;;;;;;;;5024982;28;89220;-69
2024/01/04 08:11:52;;;;;;;;;;;;;;;;;;5015340;28;89521;-64
2024/01/04 08:14:18;;;;;;;;;;;;;;;;;;5018480;28;89179;-69
2024/01/04 08:16:43;;;;;;;;;;;;;;;;;;5010791;28;89766;-69
2024/01/04 08:19:08;;;;;;;;;;;;;;;;;;5016474;28;90218;-67
2024/01/04 08:21:34;;;;;;;;;;;;;;;;;;5039516;27;90740;-65
2024/01/04 08:23:59;;;;;;;;;;;;;;;;;;5013280;28;89443;-66
2024/01/04 08:26:25;;;;;;;;;;;;;;;;;;5014509;28;89392;-63
2024/01/04 08:28:50;;;;;;;;;;;;;;;;;;5017456;28;89604;-70
2024/01/04 08:31:16;;;;;;;;;;;;;;;;;;5018967;28;90074;-63
2024/01/04 08:33:41;;;;;;;;;;;;;;;;;;5011013;27;92123;-63
2024/01/04 08:36:06;;;;;;;;;;;;;;;;;;5016230;27;90103;-69
2024/01/04 08:38:31;;;;;;;;;;;;;;;;;;5014317;28;89668;-68
2024/01/04 08:40:57;;;;;;;;;;;;;;;;;;5007601;28;89540;-69
2024/01/04 08:43:22;;;;;;;;;;;;;;;;;;5011706;28;89545;-67
2024/01/04 08:45:50;;;;;;;;;;;;;;;;;;5009052;28;89773;-67
2024/01/04 08:48:15;;;;;;;;;;;;;;;;;;5012812;28;90174;-68
2024/01/04 08:50:40;;;;;;;;;;;;;;;;;;5013494;28;90300;-67
2024/01/04 08:53:06;;;;;;;;;;;;;;;;;;5020305;28;89676;-67
2024/01/04 08:55:32;;;;;;;;;;;;;;;;;;5019351;28;89569;-66
2024/01/04 08:57:58;;;;;;;;;;;;;;;;;;5019019;28;89420;-67
2024/01/04 09:00:24;;;;;;;;;;;;;;;;;;5013656;28;89531;-67
2024/01/04 09:02:49;;;;;;;;;;;;;;;;;;5007177;28;90072;-66
2024/01/04 09:05:14;;;;;;;;;;;;;;;;;;5019100;28;89778;-66
2024/01/04 09:07:39;;;;;;;;;;;;;;;;;;5018416;28;89004;-68
2024/01/04 09:10:05;;;;;;;;;;;;;;;;;;5012579;28;90027;-66
2024/01/04 09:12:31;;;;;;;;;;;;;;;;;;5014903;28;89480;-66
2024/01/04 09:14:56;;;;;;;;;;;;;;;;;;5015237;28;89596;-67
2024/01/04 09:17:21;;;;;;;;;;;;;;;;;;5016302;28;89436;-66
2024/01/04 09:19:47;;;;;;;;;;;;;;;;;;5018115;28;90883;-66
2024/01/04 09:22:12;;;;;;;;;;;;;;;;;;5014189;28;90811;-66
2024/01/04 09:24:38;;;;;;;;;;;;;;;;;;5016641;28;90020;-66
2024/01/04 09:27:03;;;;;;;;;;;;;;;;;;5020123;28;89740;-67
2024/01/04 09:29:29;;;;;;;;;;;;;;;;;;5014216;28;90606;-67
2024/01/04 09:31:55;;;;;;;;;;;;;;;;;;5015342;27;90339;-66
2024/01/04 09:34:20;;;;;;;;;;;;;;;;;;5019829;27;89780;-67
2024/01/04 09:36:46;;;;;;;;;;;;;;;;;;5015129;27;90255;-66
2024/01/04 09:39:17;;;;;;;;;;;;;;;;;;5017694;27;90710;-67
2024/01/04 09:41:44;;;;;;;;;;;;;;;;;;5012790;28;90742;-66
2024/01/04 09:44:10;;;;;;;;;;;;;;;;;;5018249;28;90271;-66
2024/01/04 09:46:36;;;;;;;;;;;;;;;;;;5017609;28;89280;-67
2024/01/04 09:49:02;;;;;;;;;;;;;;;;;;5015143;28;91059;-67
2024/01/04 09:51:28;;;;;;;;;;;;;;;;;;5018945;28;89208;-66
2024/01/04 09:53:54;;;;;;;;;;;;;;;;;;5019431;28;89243;-66
2024/01/04 09:56:20;;;;;;;;;;;;;;;;;;5019103;28;90643;-66
2024/01/04 09:58:45;;;;;;;;;;;;;;;;;;5017633;28;89585;-66
2024/01/04 10:01:12;;;;;;;;;;;;;;;;;;5018465;28;90515;-67
2024/01/04 10:03:41;;;;;;;;;;;;;;;;;;5013508;28;89466;-67
2024/01/04 10:06:08;;;;;;;;;;;;;;;;;;5019006;28;89113;-66
2024/01/04 10:08:36;;;;;;;;;;;;;;;;;;5021731;28;89022;-66
2024/01/04 10:11:06;;;;;;;;;;;;;;;;;;5016751;28;89234;-66
2024/01/04 10:13:32;;;;;;;;;;;;;;;;;;5015468;28;89030;-66
2024/01/04 10:15:59;;;;;;;;;;;;;;;;;;5019181;28;89637;-67
2024/01/04 10:18:29;;;;;;;;;;;;;;;;;;5015723;28;90317;-66
2024/01/04 10:20:58;;;;;;;;;;;;;;;;;;5027991;27;90225;-67
2024/01/04 10:23:24;;;;;;;;;;;;;;;;;;5023739;27;91787;-65
2024/01/04 10:25:49;;;;;;;;;;;;;;;;;;5024739;27;89870;-67
2024/01/04 10:28:18;;;;;;;;;;;;;;;;;;5020979;27;92188;-67
2024/01/04 10:30:54;;;;;;;;;;;;;;;;;;5016923;28;89408;-67
2024/01/04 10:33:19;;;;;;;;;;;;;;;;;;5024548;28;90301;-67
2024/01/04 10:35:44;;;;;;;;;;;;;;;;;;5020208;27;89419;-67
2024/01/04 10:38:10;;;;;;;;;;;;;;;;;;5025698;27;89507;-67
2024/01/04 10:40:35;;;;;;;;;;;;;;;;;;5021507;28;89476;-66
2024/01/04 10:43:01;;;;;;;;;;;;;;;;;;5018038;28;89904;-67
2024/01/04 10:45:29;;;;;;;;;;;;;;;;;;5023538;28;90743;-67
2024/01/04 10:47:55;;;;;;;;;;;;;;;;;;5019607;28;89341;-67
2024/01/04 10:50:27;;;;;;;;;;;;;;;;;;5011949;28;89704;-67
2024/01/04 10:52:56;;;;;;;;;;;;;;;;;;5011793;27;89532;-72
2024/01/04 10:55:22;;;;;;;;;;;;;;;;;;5019998;27;92332;-68
2024/01/04 10:57:49;;;;;;;;;;;;;;;;;;5019027;27;89974;-65
2024/01/04 11:00:16;;;;;;;;;;;;;;;;;;5022043;28;89688;-65
2024/01/04 11:02:42;;;;;;;;;;;;;;;;;;5025350;28;89318;-65
2024/01/04 11:05:09;;;;;;;;;;;;;;;;;;5019504;28;89222;-65
2024/01/04 11:07:35;;;;;;;;;;;;;;;;;;5024479;27;90760;-65
2024/01/04 11:10:01;;;;;;;;;;;;;;;;;;5024170;28;91325;-66
2024/01/04 11:12:28;;;;;;;;;;;;;;;;;;5015173;28;89341;-66
2024/01/04 11:14:53;;;;;;;;;;;;;;;;;;5019980;28;91045;-69
2024/01/04 11:17:38;;;;;;;;;;;;;;;;;;5010977;27;90795;-67
2024/01/04 11:20:30;;;;;;;;;;;;;;;;;;5027779;27;89102;-70
2024/01/04 11:22:56;;;;;;;;;;;;;;;;;;5011035;28;90638;-68
2024/01/04 11:25:41;;;;;;;;;;;;;;;;;;5017211;27;89912;-68
2024/01/04 11:28:08;;;;;;;;;;;;;;;;;;5021959;27;90901;-68
2024/01/04 11:30:34;;;;;;;;;;;;;;;;;;5019749;28;90504;-65
2024/01/04 11:32:59;;;;;;;;;;;;;;;;;;5019149;27;89178;-69
2024/01/04 11:35:25;;;;;;;;;;;;;;;;;;5016232;27;89591;-71
2024/01/04 11:37:51;;;;;;;;;;;;;;;;;;5017802;27;89184;-68
2024/01/04 11:40:24;;;;;;;;;;;;;;;;;;5016261;28;89332;-68
2024/01/04 11:42:49;;;;;;;;;;;;;;;;;;5015213;28;89602;-71
2024/01/04 11:45:15;;;;;;;;;;;;;;;;;;5013442;28;90004;-72
2024/01/04 11:47:43;;;;;;;;;;;;;;;;;;5017401;27;89474;-68
2024/01/04 11:50:22;;;;;;;;;;;;;;;;;;5021938;28;90076;-68
2024/01/04 11:52:48;;;;;;;;;;;;;;;;;;5011837;28;89426;-69
2024/01/04 11:55:25;;;;;;;;;;;;;;;;;;5018152;28;89883;-69
2024/01/04 11:58:02;;;;;;;;;;;;;;;;;;5017103;28;90143;-69
2024/01/04 12:00:46;;;;;;;;;;;;;;;;;;5020959;28;89094;-69
2024/01/04 12:03:14;;;;;;;;;;;;;;;;;;5017800;28;89555;-68
2024/01/04 12:05:44;;;;;;;;;;;;;;;;;;5017436;28;89811;-70
2024/01/04 12:08:09;;;;;;;;;;;;;;;;;;5015777;27;89649;-69
2024/01/04 12:10:34;;;;;;;;;;;;;;;;;;5016122;27;89662;-68
2024/01/04 12:12:59;;;;;;;;;;;;;;;;;;5023053;28;90475;-68
2024/01/04 12:15:25;;;;;;;;;;;;;;;;;;5009947;28;89611;-68
2024/01/04 12:17:50;;;;;;;;;;;;;;;;;;5017861;27;89668;-69
2024/01/04 12:20:16;;;;;;;;;;;;;;;;;;5015465;27;89783;-68
2024/01/04 12:22:42;;;;;;;;;;;;;;;;;;5017820;28;89316;-69
2024/01/04 12:25:07;;;;;;;;;;;;;;;;;;5014509;28;89998;-71
2024/01/04 12:27:36;;;;;;;;;;;;;;;;;;5021885;27;89199;-69
2024/01/04 12:30:05;;;;;;;;;;;;;;;;;;5019264;28;90884;-70
2024/01/04 12:32:31;;;;;;;;;;;;;;;;;;5016743;28;89121;-69
2024/01/04 12:34:56;;;;;;;;;;;;;;;;;;5026897;27;89554;-69
2024/01/04 12:37:21;;;;;;;;;;;;;;;;;;5019138;27;89685;-69
2024/01/04 12:39:46;;;;;;;;;;;;;;;;;;5015138;28;89708;-69
2024/01/04 12:42:14;;;;;;;;;;;;;;;;;;5017050;28;89508;-69
2024/01/04 12:44:40;;;;;;;;;;;;;;;;;;5021173;28;89297;-68
2024/01/04 12:47:05;;;;;;;;;;;;;;;;;;5018030;28;89046;-68
2024/01/04 12:49:30;;;;;;;;;;;;;;;;;;5018309;28;90601;-69
2024/01/04 12:51:56;;;;;;;;;;;;;;;;;;5018284;28;90002;-69
2024/01/04 12:54:21;;;;;;;;;;;;;;;;;;5018913;28;89128;-69
2024/01/04 12:56:46;;;;;;;;;;;;;;;;;;5023543;28;89516;-69
2024/01/04 12:59:14;;;;;;;;;;;;;;;;;;5022542;28;89562;-68
2024/01/04 13:01:39;;;;;;;;;;;;;;;;;;5021249;28;90129;-69
2024/01/04 13:04:05;;;;;;;;;;;;;;;;;;5020630;28;89684;-69
2024/01/04 13:06:30;;;;;;;;;;;;;;;;;;5022671;28;89828;-70
2024/01/04 13:08:56;;;;;;;;;;;;;;;;;;5019801;28;89497;-69
2024/01/04 13:11:22;;;;;;;;;;;;;;;;;;5015759;27;89927;-69
2024/01/04 13:13:49;;;;;;;;;;;;;;;;;;5019990;28;89108;-69
2024/01/04 13:16:15;;;;;;;;;;;;;;;;;;5020012;28;90780;-69
2024/01/04 13:18:41;;;;;;;;;;;;;;;;;;5015350;28;90224;-69
2024/01/04 13:21:07;;;;;;;;;;;;;;;;;;5021779;27;90594;-69
2024/01/04 13:23:32;;;;;;;;;;;;;;;;;;5024192;27;90324;-69
2024/01/04 13:25:58;;;;;;;;;;;;;;;;;;5031255;27;89620;-69
2024/01/04 13:28:23;;;;;;;;;;;;;;;;;;5029885;27;90024;-69
2024/01/04 13:30:49;;;;;;;;;;;;;;;;;;5021603;27;89587;-69
2024/01/04 13:33:14;;;;;;;;;;;;;;;;;;5013830;28;89888;-70
2024/01/04 13:35:39;;;;;;;;;;;;;;;;;;5014660;27;89564;-71
2024/01/04 13:38:05;;;;;;;;;;;;;;;;;;5018163;28;90884;-71
2024/01/04 13:40:30;;;;;;;;;;;;;;;;;;5020139;28;89347;-70
2024/01/04 13:42:55;;;;;;;;;;;;;;;;;;5017436;28;89871;-71
2024/01/04 13:45:21;;;;;;;;;;;;;;;;;;5018383;28;89556;-70
2024/01/04 13:47:46;;;;;;;;;;;;;;;;;;5014810;28;89471;-70
2024/01/04 13:50:12;;;;;;;;;;;;;;;;;;5015341;28;89712;-70
2024/01/04 13:52:37;;;;;;;;;;;;;;;;;;5016027;28;89049;-70
2024/01/04 13:55:04;;;;;;;;;;;;;;;;;;5017107;28;92278;-71
2024/01/04 13:57:30;;;;;;;;;;;;;;;;;;5018850;28;89498;-70
2024/01/04 13:59:55;;;;;;;;;;;;;;;;;;5021015;28;89858;-70
2024/01/04 14:02:21;;;;;;;;;;;;;;;;;;5015069;28;89447;-70
2024/01/04 14:04:46;;;;;;;;;;;;;;;;;;5016192;28;89682;-70
2024/01/04 14:07:11;;;;;;;;;;;;;;;;;;5019511;28;90110;-70
2024/01/04 14:09:36;;;;;;;;;;;;;;;;;;5013213;28;89198;-70
2024/01/04 14:12:03;;;;;;;;;;;;;;;;;;5015173;28;89686;-70
2024/01/04 14:14:28;;;;;;;;;;;;;;;;;;5016516;28;89757;-69
2024/01/04 14:16:53;;;;;;;;;;;;;;;;;;5018226;28;90475;-70
2024/01/04 14:19:19;;;;;;;;;;;;;;;;;;5017672;28;89072;-69
2024/01/04 14:21:44;;;;;;;;;;;;;;;;;;5018677;28;90545;-70
2024/01/04 14:24:09;;;;;;;;;;;;;;;;;;5022744;28;89086;-69
2024/01/04 14:26:34;;;;;;;;;;;;;;;;;;5018657;28;89531;-69
2024/01/04 14:29:00;;;;;;;;;;;;;;;;;;5020806;27;90728;-69
2024/01/04 14:31:27;;;;;;;;;;;;;;;;;;5017103;28;89088;-70
2024/01/04 14:33:52;;;;;;;;;;;;;;;;;;5015234;27;89374;-70
2024/01/04 14:36:18;;;;;;;;;;;;;;;;;;5017257;27;89083;-70
2024/01/04 14:38:43;;;;;;;;;;;;;;;;;;5015535;28;88981;-69
2024/01/04 14:41:08;;;;;;;;;;;;;;;;;;5020489;27;89632;-69
2024/01/04 14:43:34;;;;;;;;;;;;;;;;;;5024218;28;89549;-69
2024/01/04 14:45:59;;;;;;;;;;;;;;;;;;5019172;28;90946;-69
2024/01/04 14:48:26;;;;;;;;;;;;;;;;;;5016509;28;89975;-69
2024/01/04 14:50:52;;;;;;;;;;;;;;;;;;5015832;28;89907;-69
2024/01/04 14:53:17;;;;;;;;;;;;;;;;;;5014358;28;89564;-69
2024/01/04 14:55:42;;;;;;;;;;;;;;;;;;5015005;28;90063;-69
2024/01/04 14:58:08;;;;;;;;;;;;;;;;;;5015310;28;89023;-70
2024/01/04 15:00:33;;;;;;;;;;;;;;;;;;5017484;28;90724;-69
2024/01/04 15:02:59;;;;;;;;;;;;;;;;;;5016268;28;89224;-69
2024/01/04 15:05:24;;;;;;;;;;;;;;;;;;5012145;28;89730;-69
2024/01/04 15:07:49;;;;;;;;;;;;;;;;;;5017637;28;90131;-69
2024/01/04 15:10:15;;;;;;;;;;;;;;;;;;5014211;27;89425;-70
2024/01/04 15:12:40;;;;;;;;;;;;;;;;;;5016867;27;90072;-70
2024/01/04 15:15:08;;;;;;;;;;;;;;;;;;5020170;28;91102;-70
2024/01/04 15:17:34;;;;;;;;;;;;;;;;;;5019217;27;89639;-69
2024/01/04 15:19:59;;;;;;;;;;;;;;;;;;5019447;28;89743;-70
2024/01/04 15:22:24;;;;;;;;;;;;;;;;;;5020562;27;89285;-70
2024/01/04 15:24:50;;;;;;;;;;;;;;;;;;5020879;27;89116;-70
2024/01/04 15:27:15;;;;;;;;;;;;;;;;;;5028100;27;89623;-71
2024/01/04 15:29:40;;;;;;;;;;;;;;;;;;5029594;27;89624;-70
2024/01/04 15:32:06;;;;;;;;;;;;;;;;;;5029072;27;90432;-70
2024/01/04 15:34:31;;;;;;;;;;;;;;;;;;5023203;27;89963;-69
2024/01/04 15:36:56;;;;;;;;;;;;;;;;;;5024406;27;89830;-68
2024/01/04 15:39:21;;;;;;;;;;;;;;;;;;5026038;27;89478;-68
2024/01/04 15:41:47;;;;;;;;;;;;;;;;;;5022723;28;90979;-69
2024/01/04 15:44:14;;;;;;;;;;;;;;;;;;5021604;27;89715;-69
2024/01/04 15:46:40;;;;;;;;;;;;;;;;;;5023074;27;89341;-69
2024/01/04 15:49:05;;;;;;;;;;;;;;;;;;5019912;28;90132;-69
2024/01/04 15:51:31;;;;;;;;;;;;;;;;;;5027696;27;89775;-69
2024/01/04 15:53:57;;;;;;;;;;;;;;;;;;5021052;28;90476;-69
2024/01/04 15:56:22;;;;;;;;;;;;;;;;;;5021631;27;89454;-69
2024/01/04 15:58:48;;;;;;;;;;;;;;;;;;5022411;28;89660;-69
2024/01/04 16:01:13;;;;;;;;;;;;;;;;;;5028844;27;90214;-68
2024/01/04 16:03:39;;;;;;;;;;;;;;;;;;5025122;28;89451;-68
2024/01/04 16:06:04;;;;;;;;;;;;;;;;;;5030811;27;89669;-68
2024/01/04 16:08:30;;;;;;;;;;;;;;;;;;5030888;27;91062;-68
2024/01/04 16:10:56;;;;;;;;;;;;;;;;;;5032856;27;89770;-68
2024/01/04 16:13:21;;;;;;;;;;;;;;;;;;5024030;28;89332;-68
2024/01/04 16:15:46;;;;;;;;;;;;;;;;;;5026927;27;90374;-68
2024/01/04 16:18:12;;;;;;;;;;;;;;;;;;5025627;28;90736;-68
2024/01/04 16:20:37;;;;;;;;;;;;;;;;;;5024808;27;91848;-68
2024/01/04 16:23:05;;;;;;;;;;;;;;;;;;5024326;28;90538;-68
2024/01/04 16:25:31;;;;;;;;;;;;;;;;;;5025722;27;89539;-67
2024/01/04 16:27:56;;;;;;;;;;;;;;;;;;5025252;28;90688;-68
2024/01/04 16:30:22;;;;;;;;;;;;;;;;;;5024836;27;89407;-68
2024/01/04 16:32:50;;;;;;;;;;;;;;;;;;5028006;27;89694;-68
2024/01/04 16:35:15;;;;;;;;;;;;;;;;;;5026857;27;89549;-67
2024/01/04 16:37:40;;;;;;;;;;;;;;;;;;5025379;27;89959;-67